createdAt,value
2022-09-25T00:00:50.779Z,101453.91
2022-09-25T00:03:19.701Z,101462.88
2022-09-25T00:05:48.504Z,101468.50
2022-09-25T00:08:17.422Z,101467.91
2022-09-25T00:10:47.149Z,101466.03
2022-09-25T00:13:15.641Z,101477.94
2022-09-25T00:15:49.153Z,101469.81
2022-09-25T00:18:17.285Z,101475.47
2022-09-25T00:20:44.028Z,101458.75
2022-09-25T00:23:11.760Z,101468.63
2022-09-25T00:25:39.630Z,101472.97
2022-09-25T00:28:07.542Z,101476.75
2022-09-25T00:30:35.257Z,101476.16
2022-09-25T00:33:04.442Z,101478.03
2022-09-25T00:35:32.127Z,101474.75
2022-09-25T00:37:59.840Z,101475.81
2022-09-25T00:40:27.867Z,101467.69
2022-09-25T00:42:55.781Z,101473.09
2022-09-25T00:45:23.528Z,101474.16
2022-09-25T00:48:00.220Z,101474.41
2022-09-25T00:50:35.416Z,101474.63
2022-09-25T00:53:07.891Z,101480.03
2022-09-25T00:55:38.193Z,101480.03
2022-09-25T00:58:07.387Z,101479.22
2022-09-25T01:00:35.301Z,101483.81
2022-09-25T01:03:05.133Z,101472.97
2022-09-25T01:05:37.514Z,101465.09
2022-09-25T01:08:10.141Z,101467.81
2022-09-25T01:10:38.104Z,101472.16
2022-09-25T01:13:06.571Z,101475.09
2022-09-25T01:15:43.431Z,101479.69
2022-09-25T01:18:23.053Z,101476.97
2022-09-25T01:21:21.317Z,101476.63
2022-09-25T01:24:12.033Z,101475.56
2022-09-25T01:27:07.774Z,101479.31
2022-09-25T01:29:42.181Z,101480.38
2022-09-25T01:32:19.662Z,101483.91
2022-09-25T01:34:55.227Z,101486.84
2022-09-25T01:37:27.832Z,101486.84
2022-09-25T01:40:06.833Z,101482.50
2022-09-25T01:42:40.558Z,101485.44
2022-09-25T01:45:16.748Z,101491.09
2022-09-25T01:47:48.951Z,101493.78
2022-09-25T01:50:21.837Z,101498.38
2022-09-25T01:52:53.056Z,101494.84
2022-09-25T01:55:25.695Z,101493.19
2022-09-25T01:57:59.250Z,101488.84
2022-09-25T02:00:28.316Z,101499.06
2022-09-25T02:02:59.480Z,101498.25
2022-09-25T02:05:31.326Z,101500.13
2022-09-25T02:08:04.721Z,101493.06
2022-09-25T02:10:36.809Z,101495.19
2022-09-25T02:13:09.587Z,101497.06
2022-09-25T02:15:43.141Z,101499.19
2022-09-25T02:18:30.640Z,101495.66
2022-09-25T02:21:02.878Z,101500.25
2022-09-25T02:23:40.174Z,101502.13
2022-09-25T02:26:12.000Z,101502.13
2022-09-25T02:28:39.988Z,101501.53
2022-09-25T02:31:13.744Z,101497.78
2022-09-25T02:33:41.865Z,101494.69
2022-09-25T02:36:19.114Z,101499.28
2022-09-25T02:38:49.742Z,101496.59
2022-09-25T02:41:25.763Z,101496.81
2022-09-25T02:44:02.095Z,101489.75
2022-09-25T02:46:40.078Z,101499.75
2022-09-25T02:49:18.204Z,101489.16
2022-09-25T02:51:56.054Z,101495.41
2022-09-25T02:54:30.972Z,101485.88
2022-09-25T02:57:04.677Z,101485.88
2022-09-25T02:59:36.403Z,101482.34
2022-09-25T03:02:05.813Z,101484.44
2022-09-25T03:04:38.288Z,101489.03
2022-09-25T03:07:06.942Z,101486.53
2022-09-25T03:09:36.064Z,101488.41
2022-09-25T03:12:05.161Z,101487.59
2022-09-25T03:14:32.919Z,101475.34
2022-09-25T03:17:04.774Z,101475.34
2022-09-25T03:19:35.030Z,101482.63
2022-09-25T03:22:03.636Z,101479.09
2022-09-25T03:24:31.474Z,101478.53
2022-09-25T03:26:59.394Z,101479.56
2022-09-25T03:29:27.366Z,101485.81
2022-09-25T03:31:55.486Z,101488.50
2022-09-25T03:34:23.327Z,101480.63
2022-09-25T03:36:52.397Z,101483.34
2022-09-25T03:39:20.101Z,101477.44
2022-09-25T03:41:47.913Z,101499.78
2022-09-25T03:44:15.819Z,101491.09
2022-09-25T03:46:43.533Z,101493.78
2022-09-25T03:49:12.762Z,101494.84
2022-09-25T03:51:42.055Z,101498.59
2022-09-25T03:54:11.253Z,101489.06
2022-09-25T03:56:39.333Z,101486.38
2022-09-25T03:59:07.184Z,101488.25
2022-09-25T04:01:37.000Z,101490.13
2022-09-25T04:04:04.814Z,101487.41
2022-09-25T04:06:32.593Z,101484.94
2022-09-25T04:09:00.387Z,101486.81
2022-09-25T04:11:29.520Z,101497.63
2022-09-25T04:13:57.353Z,101490.59
2022-09-25T04:16:25.062Z,101490.59
2022-09-25T04:18:52.823Z,101480.81
2022-09-25T04:21:20.553Z,101488.09
2022-09-25T04:24:08.605Z,101487.28
2022-09-25T04:26:37.865Z,101483.97
2022-09-25T04:29:06.092Z,101489.63
2022-09-25T04:31:34.423Z,101472.53
2022-09-25T04:34:01.581Z,101488.19
2022-09-25T04:36:29.451Z,101490.31
2022-09-25T04:38:57.467Z,101489.47
2022-09-25T04:41:25.183Z,101485.97
2022-09-25T04:43:54.339Z,101487.84
2022-09-25T04:46:22.948Z,101480.78
2022-09-25T04:48:51.259Z,101493.69
2022-09-25T04:51:19.077Z,101486.66
2022-09-25T04:53:47.333Z,101488.28
2022-09-25T04:56:16.664Z,101489.56
2022-09-25T04:58:46.428Z,101483.34
2022-09-25T05:01:17.021Z,101480.88
2022-09-25T05:03:45.077Z,101482.75
2022-09-25T05:06:12.827Z,101475.69
2022-09-25T05:08:40.599Z,101479.44
2022-09-25T05:11:08.372Z,101482.16
2022-09-25T05:13:36.458Z,101478.03
2022-09-25T05:16:04.264Z,101484.25
2022-09-25T05:18:33.442Z,101482.59
2022-09-25T05:21:04.721Z,101467.53
2022-09-25T05:23:32.432Z,101483.88
2022-09-25T05:26:00.703Z,101474.97
2022-09-25T05:28:28.555Z,101456.03
2022-09-25T05:30:56.339Z,101472.50
2022-09-25T05:33:24.059Z,101471.66
2022-09-25T05:35:53.308Z,101448.97
2022-09-25T05:38:20.983Z,101473.53
2022-09-25T05:40:48.729Z,101478.13
2022-09-25T05:43:17.143Z,101471.88
2022-09-25T05:45:44.898Z,101475.66
2022-09-25T05:48:12.712Z,101478.59
2022-09-25T05:50:40.427Z,101475.31
2022-09-25T05:53:10.443Z,101479.06
2022-09-25T05:55:38.277Z,101488.22
2022-09-25T05:58:06.421Z,101479.53
2022-09-25T06:00:34.215Z,101471.94
2022-09-25T06:03:02.484Z,101488.91
2022-09-25T06:05:30.470Z,101492.66
2022-09-25T06:07:58.328Z,101492.06
2022-09-25T06:10:28.121Z,101494.75
2022-09-25T06:12:58.840Z,101494.16
2022-09-25T06:15:28.180Z,101491.47
2022-09-25T06:17:56.170Z,101494.38
2022-09-25T06:20:24.086Z,101491.09
2022-09-25T06:22:55.233Z,101499.19
2022-09-25T06:25:23.867Z,101491.31
2022-09-25T06:27:55.078Z,101497.53
2022-09-25T06:30:23.522Z,101498.59
2022-09-25T06:32:58.408Z,101497.78
2022-09-25T06:35:26.219Z,101495.28
2022-09-25T06:37:57.320Z,101503.41
2022-09-25T06:40:26.427Z,101498.06
2022-09-25T06:42:58.188Z,101499.28
2022-09-25T06:45:26.942Z,101499.03
2022-09-25T06:47:57.829Z,101496.34
2022-09-25T06:50:31.627Z,101499.88
2022-09-25T06:53:00.588Z,101507.75
2022-09-25T06:55:30.105Z,101510.44
2022-09-25T06:57:59.751Z,101498.28
2022-09-25T07:00:27.516Z,101506.09
2022-09-25T07:03:13.199Z,101504.22
2022-09-25T07:05:42.620Z,101506.91
2022-09-25T07:08:10.706Z,101513.38
2022-09-25T07:10:41.617Z,101510.91
2022-09-25T07:13:12.927Z,101514.66
2022-09-25T07:15:41.032Z,101515.69
2022-09-25T07:18:08.830Z,101509.94
2022-09-25T07:20:37.730Z,101516.16
2022-09-25T07:23:05.774Z,101516.97
2022-09-25T07:25:33.532Z,101516.38
2022-09-25T07:28:01.265Z,101519.06
2022-09-25T07:30:30.669Z,101523.44
2022-09-25T07:33:00.196Z,101525.53
2022-09-25T07:35:28.429Z,101526.34
2022-09-25T07:37:57.021Z,101527.41
2022-09-25T07:40:26.743Z,101525.53
2022-09-25T07:42:54.656Z,101524.69
2022-09-25T07:45:22.398Z,101527.19
2022-09-25T07:47:51.614Z,101532.59
2022-09-25T07:50:19.467Z,101524.69
2022-09-25T07:52:47.223Z,101524.69
2022-09-25T07:55:15.143Z,101530.94
2022-09-25T07:57:43.894Z,101532.81
2022-09-25T08:00:13.345Z,101527.41
2022-09-25T08:02:41.190Z,101524.47
2022-09-25T08:05:11.647Z,101518.84
2022-09-25T08:07:39.470Z,101512.63
2022-09-25T08:10:08.549Z,101522.38
2022-09-25T08:12:37.154Z,101502.72
2022-09-25T08:15:05.429Z,101515.94
2022-09-25T08:17:33.219Z,101513.00
2022-09-25T08:20:01.155Z,101507.38
2022-09-25T08:22:30.207Z,101508.19
2022-09-25T08:24:57.932Z,101513.59
2022-09-25T08:27:25.671Z,101517.13
2022-09-25T08:29:53.409Z,101508.81
2022-09-25T08:32:21.184Z,101515.84
2022-09-25T08:34:49.479Z,101521.25
2022-09-25T08:37:19.611Z,101515.84
2022-09-25T08:39:48.921Z,101516.69
2022-09-25T08:42:20.985Z,101513.97
2022-09-25T08:45:21.188Z,101523.72
2022-09-25T08:48:09.709Z,101515.41
2022-09-25T08:50:38.153Z,101517.88
2022-09-25T08:53:08.785Z,101517.66
2022-09-25T08:55:59.301Z,101512.84
2022-09-25T08:58:29.723Z,101512.16
2022-09-25T09:01:01.704Z,101508.41
2022-09-25T09:03:32.749Z,101505.47
2022-09-25T09:06:03.819Z,101504.44
2022-09-25T09:08:34.668Z,101514.19
2022-09-25T09:11:13.288Z,101505.25
2022-09-25T09:13:47.486Z,101500.44
2022-09-25T09:16:24.284Z,101497.53
2022-09-25T09:18:52.097Z,101495.88
2022-09-25T09:21:26.535Z,101497.53
2022-09-25T09:24:01.280Z,101499.75
2022-09-25T09:27:04.209Z,101498.91
2022-09-25T09:30:06.107Z,101498.47
2022-09-25T09:32:55.081Z,101493.66
2022-09-25T09:35:33.798Z,101496.13
2022-09-25T09:38:12.360Z,101496.13
2022-09-25T09:41:09.772Z,101504.00
2022-09-25T09:43:47.763Z,101498.38
2022-09-25T09:46:22.460Z,101495.22
2022-09-25T09:49:00.627Z,101491.22
2022-09-25T09:51:33.413Z,101488.28
2022-09-25T09:54:07.417Z,101492.66
2022-09-25T09:56:35.918Z,101491.38
2022-09-25T09:59:08.151Z,101467.59
2022-09-25T10:01:42.564Z,101484.69
2022-09-25T10:04:13.450Z,101483.38
2022-09-25T10:06:47.013Z,101482.34
2022-09-25T10:09:17.160Z,101481.06
2022-09-25T10:11:46.687Z,101471.88
2022-09-25T10:14:21.428Z,101473.06
2022-09-25T10:16:51.077Z,101479.91
2022-09-25T10:19:22.207Z,101477.78
2022-09-25T10:21:54.825Z,101473.56
2022-09-25T10:24:51.365Z,101480.41
2022-09-25T10:27:33.675Z,101480.16
2022-09-25T10:30:26.929Z,101468.06
2022-09-25T10:32:59.081Z,101461.59
2022-09-25T10:35:29.689Z,101461.38
2022-09-25T10:38:01.311Z,101460.09
2022-09-25T10:40:33.483Z,101460.94
2022-09-25T10:43:17.162Z,101466.25
2022-09-25T10:45:46.496Z,101467.66
2022-09-25T10:48:51.651Z,101474.25
2022-09-25T10:51:21.421Z,101467.19
2022-09-25T10:53:50.202Z,101467.78
2022-09-25T10:56:22.347Z,101468.13
2022-09-25T10:58:55.705Z,101468.72
2022-09-25T11:01:33.551Z,101461.78
2022-09-25T11:04:02.725Z,101462.63
2022-09-25T11:06:33.273Z,101463.22
2022-09-25T11:09:09.442Z,101458.16
2022-09-25T11:11:39.312Z,101463.31
2022-09-25T11:14:18.878Z,101461.22
2022-09-25T11:16:51.551Z,101453.91
2022-09-25T11:19:25.268Z,101458.03
2022-09-25T11:22:04.794Z,101452.63
2022-09-25T11:24:44.646Z,101457.81
2022-09-25T11:27:19.567Z,101467.34
2022-09-25T11:29:56.059Z,101455.44
2022-09-25T11:32:29.845Z,101454.41
2022-09-25T11:35:19.859Z,101457.69
2022-09-25T11:37:57.593Z,101458.28
2022-09-25T11:40:57.616Z,101445.56
2022-09-25T11:43:39.005Z,101444.03
2022-09-25T11:46:15.304Z,101437.31
2022-09-25T11:48:55.479Z,101437.91
2022-09-25T11:51:36.870Z,101431.69
2022-09-25T11:54:32.599Z,101435.78
2022-09-25T11:57:06.773Z,101432.63
2022-09-25T11:59:52.875Z,101427.19
2022-09-25T12:02:32.503Z,101421.56
2022-09-25T12:05:20.966Z,101425.66
2022-09-25T12:08:15.812Z,101425.78
2022-09-25T12:10:55.655Z,101415.88
2022-09-25T12:13:32.307Z,101412.56
2022-09-25T12:16:03.662Z,101416.09
2022-09-25T12:19:03.045Z,101392.09
2022-09-25T12:21:38.936Z,101406.09
2022-09-25T12:24:17.534Z,101404.53
2022-09-25T12:26:53.688Z,101397.00
2022-09-25T12:29:32.880Z,101398.16
2022-09-25T12:32:09.869Z,101391.09
2022-09-25T12:34:58.147Z,101390.97
2022-09-25T12:37:38.594Z,101394.00
2022-09-25T12:40:18.764Z,101389.19
2022-09-25T12:42:51.575Z,101370.59
2022-09-25T12:45:25.919Z,101382.47
2022-09-25T12:48:08.611Z,101379.25
2022-09-25T12:50:44.108Z,101383.66
2022-09-25T12:53:28.756Z,101376.34
2022-09-25T12:56:01.330Z,101382.59
2022-09-25T12:58:47.394Z,101379.88
2022-09-25T13:01:23.861Z,101375.28
2022-09-25T13:04:04.944Z,101365.00
2022-09-25T13:06:42.952Z,101365.31
2022-09-25T13:09:20.203Z,101370.75
2022-09-25T13:11:53.191Z,101363.78
2022-09-25T13:14:33.092Z,101351.88
2022-09-25T13:17:01.201Z,101350.31
2022-09-25T13:19:30.424Z,101350.91
2022-09-25T13:22:04.339Z,101349.84
2022-09-25T13:24:40.768Z,101351.47
2022-09-25T13:27:18.776Z,101353.13
2022-09-25T13:29:54.439Z,101353.13
2022-09-25T13:32:24.621Z,101359.94
2022-09-25T13:34:58.552Z,101343.84
2022-09-25T13:37:31.578Z,101354.28
2022-09-25T13:40:20.459Z,101347.22
2022-09-25T13:42:48.327Z,101349.69
2022-09-25T13:45:33.496Z,101355.91
2022-09-25T13:48:07.841Z,101345.91
2022-09-25T13:50:39.312Z,101340.47
2022-09-25T13:53:49.067Z,101340.81
2022-09-25T13:56:30.356Z,101341.38
2022-09-25T13:59:03.670Z,101341.16
2022-09-25T14:01:36.201Z,101333.59
2022-09-25T14:04:11.240Z,101330.63
2022-09-25T14:06:41.840Z,101332.53
2022-09-25T14:09:13.344Z,101327.69
2022-09-25T14:11:51.783Z,101324.72
2022-09-25T14:14:27.755Z,101324.72
2022-09-25T14:16:59.432Z,101324.47
2022-09-25T14:19:32.271Z,101325.28
2022-09-25T14:22:02.960Z,101320.69
2022-09-25T14:24:31.854Z,101315.03
2022-09-25T14:27:02.779Z,101314.78
2022-09-25T14:29:32.883Z,101312.88
2022-09-25T14:32:36.238Z,101309.09
2022-09-25T14:35:24.310Z,101301.81
2022-09-25T14:38:36.989Z,101307.22
2022-09-25T14:41:23.544Z,101310.75
2022-09-25T14:44:14.801Z,101305.56
2022-09-25T14:46:43.434Z,101302.03
2022-09-25T14:49:20.871Z,101301.47
2022-09-25T14:51:50.596Z,101307.97
2022-09-25T14:54:20.574Z,101306.31
2022-09-25T14:56:52.014Z,101304.69
2022-09-25T14:59:31.197Z,101305.75
2022-09-25T15:02:01.291Z,101305.41
2022-09-25T15:04:32.399Z,101287.75
2022-09-25T15:07:03.663Z,101286.69
2022-09-25T15:09:42.315Z,101287.50
2022-09-25T15:12:19.201Z,101281.25
2022-09-25T15:15:03.165Z,101274.78
2022-09-25T15:17:31.275Z,101275.84
2022-09-25T15:20:01.668Z,101280.44
2022-09-25T15:22:32.887Z,101288.56
2022-09-25T15:25:03.927Z,101279.63
2022-09-25T15:27:32.420Z,101280.44
2022-09-25T15:30:03.026Z,101282.56
2022-09-25T15:32:39.716Z,101286.09
2022-09-25T15:35:17.517Z,101291.53
2022-09-25T15:37:46.115Z,101291.53
2022-09-25T15:40:25.644Z,101285.28
2022-09-25T15:42:53.729Z,101288.00
2022-09-25T15:45:37.864Z,101284.47
2022-09-25T15:48:29.773Z,101276.09
2022-09-25T15:50:59.614Z,101278.78
2022-09-25T15:53:30.563Z,101272.56
2022-09-25T15:56:14.778Z,101268.78
2022-09-25T15:58:46.518Z,101268.19
2022-09-25T16:01:37.739Z,101263.84
2022-09-25T16:04:26.276Z,101261.97
2022-09-25T16:06:54.645Z,101273.63
2022-09-25T16:09:33.486Z,101275.25
2022-09-25T16:12:23.399Z,101278.22
2022-09-25T16:14:51.967Z,101270.25
2022-09-25T16:17:32.965Z,101276.81
2022-09-25T16:20:03.536Z,101283.88
2022-09-25T16:22:39.228Z,101282.00
2022-09-25T16:25:17.072Z,101284.72
2022-09-25T16:27:47.621Z,101279.53
2022-09-25T16:30:20.849Z,101287.66
2022-09-25T16:32:52.339Z,101284.38
2022-09-25T16:35:40.661Z,101287.91
2022-09-25T16:38:27.781Z,101275.69
2022-09-25T16:41:04.892Z,101284.63
2022-09-25T16:43:35.681Z,101284.63
2022-09-25T16:46:12.979Z,101287.59
2022-09-25T16:48:42.903Z,101284.28
2022-09-25T16:51:22.531Z,101274.69
2022-09-25T16:53:52.312Z,101282.41
2022-09-25T16:56:22.615Z,101281.59
2022-09-25T16:58:50.675Z,101287.81
2022-09-25T17:01:19.291Z,101276.41
2022-09-25T17:03:52.466Z,101266.81
2022-09-25T17:06:21.401Z,101278.31
2022-09-25T17:08:54.662Z,101276.66
2022-09-25T17:11:23.310Z,101273.13
2022-09-25T17:13:51.615Z,101264.00
2022-09-25T17:16:19.374Z,101264.00
2022-09-25T17:18:48.518Z,101278.22
2022-09-25T17:21:17.633Z,101274.69
2022-09-25T17:23:45.462Z,101285.78
2022-09-25T17:26:18.455Z,101278.72
2022-09-25T17:28:46.396Z,101273.53
2022-09-25T17:31:20.041Z,101276.50
2022-09-25T17:33:50.975Z,101276.72
2022-09-25T17:36:18.921Z,101268.59
2022-09-25T17:38:46.717Z,101258.00
2022-09-25T17:41:19.616Z,101261.53
2022-09-25T17:43:47.773Z,101257.53
2022-09-25T17:46:16.229Z,101253.75
2022-09-25T17:48:44.369Z,101252.44
2022-09-25T17:51:16.621Z,101233.56
2022-09-25T17:53:45.389Z,101252.69
2022-09-25T17:56:13.996Z,101257.03
2022-09-25T17:58:44.232Z,101247.84
2022-09-25T18:01:17.998Z,101255.13
2022-09-25T18:03:45.791Z,101250.78
2022-09-25T18:06:14.964Z,101242.41
2022-09-25T18:08:44.670Z,101239.22
2022-09-25T18:11:13.501Z,101219.59
2022-09-25T18:13:42.167Z,101230.41
2022-09-25T18:16:16.597Z,101237.81
2022-09-25T18:19:02.015Z,101239.13
2022-09-25T18:21:48.832Z,101235.84
2022-09-25T18:24:16.721Z,101241.25
2022-09-25T18:26:46.094Z,101228.78
2022-09-25T18:29:16.340Z,101229.84
2022-09-25T18:31:44.254Z,101238.22
2022-09-25T18:34:12.036Z,101228.44
2022-09-25T18:36:42.229Z,101234.94
2022-09-25T18:39:10.443Z,101238.75
2022-09-25T18:41:38.902Z,101241.69
2022-09-25T18:44:07.497Z,101228.53
2022-09-25T18:46:35.910Z,101238.16
2022-09-25T18:49:04.140Z,101232.75
2022-09-25T18:51:31.888Z,101231.94
2022-09-25T18:54:01.101Z,101229.44
2022-09-25T18:56:28.979Z,101232.38
2022-09-25T18:58:56.720Z,101236.16
2022-09-25T19:01:24.614Z,101228.28
2022-09-25T19:03:53.024Z,101229.34
2022-09-25T19:06:21.812Z,101224.19
2022-09-25T19:08:53.527Z,101223.59
2022-09-25T19:11:23.206Z,101219.81
2022-09-25T19:13:51.175Z,101219.81
2022-09-25T19:16:19.996Z,101218.66
2022-09-25T19:18:50.104Z,101213.00
2022-09-25T19:21:21.159Z,101200.13
2022-09-25T19:23:49.465Z,101210.78
2022-09-25T19:26:19.605Z,101217.03
2022-09-25T19:28:48.815Z,101211.84
2022-09-25T19:31:18.238Z,101215.63
2022-09-25T19:33:46.919Z,101210.47
2022-09-25T19:36:19.086Z,101201.91
2022-09-25T19:38:48.089Z,101211.75
2022-09-25T19:41:18.047Z,101210.13
2022-09-25T19:43:46.842Z,101214.72
2022-09-25T19:46:17.581Z,101209.53
2022-09-25T19:48:46.557Z,101202.50
2022-09-25T19:51:15.512Z,101202.72
2022-09-25T19:53:43.575Z,101201.91
2022-09-25T19:56:12.024Z,101208.41
2022-09-25T19:58:40.464Z,101196.66
2022-09-25T20:01:13.278Z,101207.56
2022-09-25T20:03:43.262Z,101190.66
2022-09-25T20:06:11.873Z,101196.75
2022-09-25T20:08:40.228Z,101188.63
2022-09-25T20:11:19.522Z,101176.53
2022-09-25T20:13:48.408Z,101186.97
2022-09-25T20:16:18.081Z,101186.41
2022-09-25T20:18:50.647Z,101182.63
2022-09-25T20:21:21.311Z,101172.03
2022-09-25T20:23:51.613Z,101165.81
2022-09-25T20:26:20.290Z,101157.69
2022-09-25T20:28:52.987Z,101142.31
2022-09-25T20:31:21.383Z,101156.28
2022-09-25T20:33:50.540Z,101156.53
2022-09-25T20:36:19.309Z,101158.91
2022-09-25T20:38:50.699Z,101151.59
2022-09-25T20:41:18.920Z,101139.94
2022-09-25T20:43:50.610Z,101138.31
2022-09-25T20:46:20.371Z,101133.13
2022-09-25T20:48:51.490Z,101133.13
2022-09-25T20:51:21.935Z,101126.91
2022-09-25T20:53:51.649Z,101127.72
2022-09-25T20:56:19.807Z,101129.59
2022-09-25T20:58:52.944Z,101123.38
2022-09-25T21:01:24.439Z,101124.19
2022-09-25T21:03:54.115Z,101124.19
2022-09-25T21:06:23.920Z,101116.31
2022-09-25T21:08:53.492Z,101119.84
2022-09-25T21:11:21.629Z,101120.91
2022-09-25T21:13:52.416Z,101117.38
2022-09-25T21:16:21.496Z,101118.44
2022-09-25T21:18:54.859Z,101117.63
2022-09-25T21:21:24.527Z,101121.41
2022-09-25T21:23:55.058Z,101105.81
2022-09-25T21:26:25.157Z,101113.53
2022-09-25T21:28:54.835Z,101094.66
2022-09-25T21:31:24.942Z,101111.31
2022-09-25T21:33:55.231Z,101108.84
2022-09-25T21:36:24.000Z,101094.16
2022-09-25T21:38:52.209Z,101097.19
2022-09-25T21:41:21.954Z,101095.31
2022-09-25T21:43:53.247Z,101100.72
2022-09-25T21:46:21.642Z,101100.72
2022-09-25T21:48:51.370Z,101101.78
2022-09-25T21:51:23.117Z,101108.03
2022-09-25T21:53:51.586Z,101104.75
2022-09-25T21:56:20.997Z,101107.44
2022-09-25T21:58:48.806Z,101098.50
2022-09-25T22:01:18.435Z,101097.94
2022-09-25T22:03:49.819Z,101095.22
2022-09-25T22:06:21.135Z,101104.41
2022-09-25T22:08:50.724Z,101091.94
2022-09-25T22:11:19.423Z,101099.47
2022-09-25T22:13:49.101Z,101091.59
2022-09-25T22:16:19.065Z,101092.44
2022-09-25T22:18:48.920Z,101081.75
2022-09-25T22:21:18.511Z,101063.72
2022-09-25T22:23:48.208Z,101085.63
2022-09-25T22:26:17.814Z,101082.34
2022-09-25T22:28:46.276Z,101088.81
2022-09-25T22:31:16.502Z,101076.34
2022-09-25T22:33:44.686Z,101059.94
2022-09-25T22:36:13.158Z,101070.13
2022-09-25T22:38:41.579Z,101063.06
2022-09-25T22:41:12.746Z,101064.94
2022-09-25T22:43:41.392Z,101057.91
2022-09-25T22:46:11.580Z,101054.38
2022-09-25T22:48:40.494Z,101045.69
2022-09-25T22:51:11.464Z,101045.69
2022-09-25T22:53:40.556Z,101039.28
2022-09-25T22:56:11.525Z,101054.88
2022-09-25T22:58:39.581Z,101047.56
2022-09-25T23:01:10.707Z,101040.50
2022-09-25T23:03:38.769Z,101038.88
2022-09-25T23:06:06.871Z,101039.69
2022-09-25T23:08:34.657Z,101033.47
2022-09-25T23:11:07.497Z,101029.13
2022-09-25T23:13:37.679Z,101021.00
2022-09-25T23:16:07.498Z,101016.66
2022-09-25T23:18:35.995Z,101012.88
2022-09-25T23:21:04.413Z,101018.53
2022-09-25T23:23:32.395Z,101005.00
2022-09-25T23:26:03.460Z,101005.00
2022-09-25T23:28:33.939Z,101001.47
2022-09-25T23:31:15.448Z,100987.13
2022-09-25T23:33:44.440Z,100987.97
2022-09-25T23:36:13.874Z,100976.31
2022-09-25T23:38:41.635Z,100971.72
2022-09-25T23:41:16.997Z,100970.09
2022-09-25T23:43:45.704Z,100961.97
2022-09-25T23:46:16.518Z,100960.31
2022-09-25T23:48:44.883Z,100959.50
2022-09-25T23:51:13.471Z,100937.28
2022-09-25T23:53:42.454Z,100935.81
2022-09-25T23:56:13.060Z,100940.81
2022-09-25T23:58:41.065Z,100936.47
